Time;durP1;ratioP1;P1;durP2;ratioP2;P2;SDS_P1;SDS_P2;PMS_P1;PMS_P2;Temp;Humidity;BMP_temperature;BMP_pressure;BME280_temperature;BME280_humidity;BME280_pressure;Samples;Min_cycle;Max_cycle;Signal;HPM_P1;HPM_P2
2022/06/26 00:00:49;;;;;;;6.10;1.40;;;;;;;20.08;72.91;99685.09;6293044;28;20040;-69
2022/06/26 00:03:50;;;;;;;3.20;1.53;;;;;;;20.06;73.67;99673.03;6309880;28;20093;-69
2022/06/26 00:06:51;;;;;;;2.20;1.47;;;;;;;20.12;73.78;99682.97;6329633;28;20040;-70
2022/06/26 00:09:52;;;;;;;5.40;1.80;;;;;;;20.21;73.77;99687.25;6314586;28;20032;-70
2022/06/26 00:12:53;;;;;;;;;;;;;;;20.23;73.70;99687.09;6350369;28;20463;-69
2022/06/26 00:15:54;;;;;;;2.65;1.50;;;;;;;20.21;74.64;99683.78;6331821;28;19928;-69
2022/06/26 00:18:56;;;;;;;4.15;1.50;;;;;;;20.22;75.02;99685.41;6329047;28;20490;-69
2022/06/26 00:21:57;;;;;;;6.35;1.80;;;;;;;20.20;75.23;99695.34;6331592;28;20088;-69
2022/06/26 00:24:58;;;;;;;6.60;1.70;;;;;;;20.19;76.12;99702.47;6297953;28;20059;-70
2022/06/26 00:27:59;;;;;;;3.05;1.70;;;;;;;20.18;76.37;99700.84;6331644;28;20066;-70
2022/06/26 00:31:01;;;;;;;4.35;1.98;;;;;;;20.09;77.47;99704.44;6331628;28;20035;-70
2022/06/26 00:34:02;;;;;;;5.60;1.70;;;;;;;20.08;78.49;99705.47;6332358;28;20075;-70
2022/06/26 00:37:03;;;;;;;8.03;1.70;;;;;;;20.16;76.37;99712.56;6332929;28;20119;-70
2022/06/26 00:40:05;;;;;;;;;;;;;;;20.23;76.30;99703.00;6300077;28;20063;-70
2022/06/26 00:43:06;;;;;;;2.85;1.58;;;;;;;20.23;77.34;99695.88;6350926;28;20358;-70
2022/06/26 00:46:07;;;;;;;3.97;1.77;;;;;;;20.12;77.58;99689.06;6332443;28;20105;-69
2022/06/26 00:49:08;;;;;;;6.90;1.87;;;;;;;19.94;79.36;99693.69;6315491;28;20039;-69
2022/06/26 00:52:09;;;;;;;3.65;1.63;;;;;;;19.84;79.71;99704.41;6331738;28;20080;-70
2022/06/26 00:55:10;;;;;;;5.70;1.73;;;;;;;19.66;81.07;99698.38;6332507;28;20466;-70
2022/06/26 00:58:11;;;;;;;3.15;1.45;;;;;;;19.76;81.97;99695.63;6332589;28;20040;-71
2022/06/26 01:01:12;;;;;;;3.35;1.50;;;;;;;19.76;80.53;99690.34;6350473;28;20043;-70
2022/06/26 01:04:13;;;;;;;3.60;2.00;;;;;;;19.66;81.74;99699.22;6298819;28;20131;-70
2022/06/26 01:07:15;;;;;;;4.83;1.70;;;;;;;19.41;82.22;99693.00;6321524;28;20040;-70
2022/06/26 01:10:18;;;;;;;4.35;2.17;;;;;;;19.47;82.71;99697.66;6346158;28;20546;-70
2022/06/26 01:13:18;;;;;;;5.70;1.80;;;;;;;19.57;85.03;99702.81;6305944;28;20070;-70
2022/06/26 01:16:21;;;;;;;3.63;1.50;;;;;;;19.59;84.81;99706.13;6288886;28;20040;-70
2022/06/26 01:19:22;;;;;;;3.97;1.85;;;;;;;19.57;83.77;99705.47;6319881;28;20061;-70
2022/06/26 01:22:26;;;;;;;4.80;1.90;;;;;;;19.59;82.90;99705.31;6324038;28;20044;-70
2022/06/26 01:25:40;;;;;;;5.38;1.63;;;;;;;19.58;81.31;99699.19;6323555;28;20328;-69
2022/06/26 01:28:41;;;;;;;4.90;2.00;;;;;;;19.58;81.97;99701.00;6323657;28;20040;-70
2022/06/26 01:31:41;;;;;;;6.73;2.40;;;;;;;19.41;82.96;99703.56;6288950;28;20059;-69
2022/06/26 01:34:44;;;;;;;8.17;2.10;;;;;;;19.32;84.66;99708.00;6288897;28;20055;-69
2022/06/26 01:37:45;;;;;;;6.70;1.98;;;;;;;19.34;83.71;99707.84;6323422;28;20044;-70
2022/06/26 01:40:49;;;;;;;4.13;2.05;;;;;;;19.37;84.98;99704.06;6288914;28;20036;-70
2022/06/26 01:43:52;;;;;;;3.63;2.05;;;;;;;19.39;82.90;99705.56;6322807;28;20502;-69
2022/06/26 01:46:53;;;;;;;8.20;2.15;;;;;;;19.07;84.67;99708.88;6323143;28;20046;-69
2022/06/26 01:49:54;;;;;;;5.10;2.37;;;;;;;19.17;84.06;99706.97;6305253;28;20040;-70
2022/06/26 01:52:56;;;;;;;5.83;1.90;;;;;;;19.24;85.60;99707.97;6271897;28;20040;-70
2022/06/26 01:55:59;;;;;;;4.90;2.00;;;;;;;19.17;85.30;99711.41;6288541;28;20044;-69
2022/06/26 01:59:00;;;;;;;4.32;2.30;;;;;;;19.09;85.34;99712.19;6304733;28;20473;-69
2022/06/26 02:02:04;;;;;;;3.17;2.00;;;;;;;19.06;85.50;99712.50;6309370;28;20585;-69
2022/06/26 02:05:07;;;;;;;3.97;2.20;;;;;;;19.09;87.28;99717.50;6312977;28;20043;-70
2022/06/26 02:08:09;;;;;;;5.05;2.30;;;;;;;19.07;88.50;99720.28;6296624;28;20146;-70
2022/06/26 02:14:29;;;;;;;7.97;2.55;;;;;;;18.74;89.48;99721.88;6347832;28;20044;-69
2022/06/26 02:17:30;;;;;;;6.10;2.47;;;;;;;18.54;91.53;99734.41;6312740;28;20520;-69
2022/06/26 02:20:32;;;;;;;5.10;2.33;;;;;;;18.72;90.34;99735.22;6329532;28;20036;-70
2022/06/26 02:23:33;;;;;;;4.68;2.63;;;;;;;18.79;90.07;99734.63;6329417;28;20078;-69
2022/06/26 02:26:34;;;;;;;4.07;2.13;;;;;;;18.89;88.75;99741.47;6312613;28;20123;-70
2022/06/26 02:29:35;;;;;;;6.13;2.67;;;;;;;18.82;89.10;99747.53;6295050;28;20090;-70
2022/06/26 02:32:36;;;;;;;5.00;2.17;;;;;;;18.80;88.83;99746.84;6329380;28;20050;-69
2022/06/26 02:35:36;;;;;;;5.75;2.60;;;;;;;18.79;88.29;99767.16;6312635;28;20505;-70
2022/06/26 02:38:37;;;;;;;4.10;2.40;;;;;;;18.76;89.24;99770.09;6312240;28;20050;-70
2022/06/26 02:41:38;;;;;;;6.60;2.87;;;;;;;18.79;88.59;99758.44;6329017;28;20092;-69
2022/06/26 02:44:39;;;;;;;8.13;2.30;;;;;;;18.71;89.92;99759.97;6294432;28;20083;-70
2022/06/26 02:47:40;;;;;;;6.97;2.45;;;;;;;18.46;92.56;99761.59;6287085;28;20139;-70
2022/06/26 02:50:42;;;;;;;4.45;2.25;;;;;;;18.49;93.15;99766.59;6321600;28;20087;-70
2022/06/26 02:53:43;;;;;;;6.60;2.20;;;;;;;18.61;90.91;99783.00;6321565;28;20052;-70
2022/06/26 02:56:46;;;;;;;4.27;2.70;;;;;;;18.61;91.60;99784.84;6286970;28;20158;-70
2022/06/26 02:59:47;;;;;;;5.88;2.65;;;;;;;18.43;92.71;99788.31;6303820;28;20508;-70
2022/06/26 03:02:50;;;;;;;8.20;2.90;;;;;;;18.48;93.07;99783.41;6303483;28;20047;-70
2022/06/26 03:05:52;;;;;;;5.55;2.90;;;;;;;18.59;91.71;99778.88;6286851;28;20078;-70
2022/06/26 03:08:53;;;;;;;5.10;3.03;;;;;;;18.45;92.81;99778.44;6303558;28;20048;-70
2022/06/26 03:11:54;;;;;;;7.00;3.20;;;;;;;18.43;94.92;99796.25;6303292;28;20040;-70
2022/06/26 03:14:55;;;;;;;6.73;3.43;;;;;;;18.36;94.41;99791.69;6270274;28;20456;-70
2022/06/26 03:17:56;;;;;;;8.73;3.17;;;;;;;18.37;94.27;99793.38;6286519;28;20448;-70
2022/06/26 03:20:58;;;;;;;5.57;4.05;;;;;;;18.42;94.25;99786.63;6303216;28;20039;-70
2022/06/26 03:24:01;;;;;;;5.15;2.90;;;;;;;18.49;92.80;99798.28;6302918;28;20089;-70
2022/06/26 03:27:02;;;;;;;5.47;3.20;;;;;;;18.32;94.46;99796.44;6287092;28;20126;-69
2022/06/26 03:30:05;;;;;;;7.53;3.17;;;;;;;18.38;93.90;99803.78;6286353;28;20044;-70
2022/06/26 03:33:06;;;;;;;6.57;3.15;;;;;;;18.60;92.29;99807.78;6321026;28;20303;-69
2022/06/26 03:36:12;;;;;;;7.75;3.33;;;;;;;18.75;89.72;99802.78;6302777;28;20052;-69
2022/06/26 03:39:13;;;;;;;8.25;3.40;;;;;;;18.88;90.97;99798.00;6303542;28;20480;-69
2022/06/26 03:42:15;;;;;;;6.25;3.25;;;;;;;18.96;89.60;99810.41;6320828;28;20036;-70
2022/06/26 03:45:15;;;;;;;6.55;2.88;;;;;;;19.07;88.44;99809.38;6294264;28;20110;-70
2022/06/26 03:48:16;;;;;;;5.47;2.17;;;;;;;19.12;90.04;99810.53;6277969;28;20040;-69
2022/06/26 03:51:20;;;;;;;4.80;2.60;;;;;;;19.30;87.39;99825.53;6294455;28;20048;-70
2022/06/26 03:54:21;;;;;;;6.68;3.00;;;;;;;19.38;86.42;99822.94;6294599;28;20119;-69
2022/06/26 03:57:22;;;;;;;6.23;3.10;;;;;;;19.43;85.93;99815.38;6294432;28;20059;-69
2022/06/26 04:00:25;;;;;;;5.55;2.55;;;;;;;19.44;85.00;99826.81;6294349;28;20041;-69
2022/06/26 04:03:29;;;;;;;5.30;2.30;;;;;;;19.51;86.17;99820.69;6301485;28;20122;-70
2022/06/26 04:06:30;;;;;;;10.73;3.10;;;;;;;19.63;84.90;99837.16;6320131;28;20044;-69
2022/06/26 04:09:31;;;;;;;4.63;2.50;;;;;;;19.70;85.14;99835.53;6297650;28;20072;-70
2022/06/26 04:12:32;;;;;;;5.40;2.13;;;;;;;19.79;84.28;99831.13;6278402;28;20551;-69
2022/06/26 04:15:34;;;;;;;4.40;2.93;;;;;;;19.86;84.17;99840.09;6278610;28;20085;-69
2022/06/26 04:18:35;;;;;;;7.45;2.60;;;;;;;19.85;82.79;99842.91;6298581;28;20384;-69
2022/06/26 04:21:36;;;;;;;;;;;;;;;19.92;81.99;99846.59;6296666;28;20426;-69
2022/06/26 04:24:39;;;;;;;5.82;2.42;;;;;;;19.96;82.52;99850.56;6294903;28;19924;-69
2022/06/26 04:27:40;;;;;;;6.25;2.42;;;;;;;20.07;81.89;99847.63;6294616;28;20041;-69
2022/06/26 04:30:41;;;;;;;5.07;2.90;;;;;;;20.03;81.91;99843.63;6277398;28;20041;-69
2022/06/26 04:33:43;;;;;;;5.70;2.50;;;;;;;20.01;81.23;99850.91;6278040;28;20048;-70
2022/06/26 04:36:44;;;;;;;7.20;2.55;;;;;;;20.01;82.62;99852.72;6295942;28;20494;-71
2022/06/26 04:39:45;;;;;;;6.43;3.00;;;;;;;19.99;82.09;99857.34;6296078;28;20041;-70
2022/06/26 04:42:46;;;;;;;6.43;2.83;;;;;;;19.97;82.19;99859.34;6278244;28;20418;-70
2022/06/26 04:45:46;;;;;;;3.30;2.83;;;;;;;20.03;82.16;99864.00;6294306;28;20109;-70
2022/06/26 04:48:47;;;;;;;7.10;2.90;;;;;;;20.10;81.67;99870.31;6294761;28;20045;-69
2022/06/26 04:51:49;;;;;;;8.18;3.05;;;;;;;20.13;81.52;99877.94;6295838;28;20036;-70
2022/06/26 04:54:50;;;;;;;4.57;3.30;;;;;;;20.14;81.41;99869.03;6299222;28;20502;-70
2022/06/26 04:57:51;;;;;;;5.40;2.47;;;;;;;20.17;80.81;99871.34;6304311;28;20047;-70
2022/06/26 05:00:52;;;;;;;3.97;2.60;;;;;;;20.18;80.52;99870.34;6289891;28;20055;-70
2022/06/26 05:03:53;;;;;;;10.53;3.13;;;;;;;20.27;81.29;99869.38;6281917;28;20040;-69
2022/06/26 05:06:55;;;;;;;;;;;;;;;20.28;81.02;99870.19;6300602;28;20055;-70
2022/06/26 05:09:56;;;;;;;8.35;3.20;;;;;;;20.48;81.02;99879.53;6297972;28;19924;-69
2022/06/26 05:12:56;;;;;;;5.90;3.10;;;;;;;20.69;79.10;99878.28;6315678;28;20490;-70
2022/06/26 05:15:57;;;;;;;8.70;2.87;;;;;;;20.75;79.89;99876.81;6289701;28;20099;-70
2022/06/26 05:18:58;;;;;;;6.97;2.80;;;;;;;20.74;78.62;99881.28;6305831;28;20497;-70
2022/06/26 05:22:02;;;;;;;6.93;2.50;;;;;;;20.78;77.67;99889.75;6297356;28;20044;-70
2022/06/26 05:25:03;;;;;;;6.03;2.63;;;;;;;20.85;77.54;99883.63;6320749;28;20047;-69
2022/06/26 05:28:04;;;;;;;5.38;2.72;;;;;;;21.13;76.01;99878.00;6322757;28;20059;-69
2022/06/26 05:31:05;;;;;;;4.00;2.27;;;;;;;20.96;76.49;99889.59;6305602;28;20028;-69
2022/06/26 05:34:06;;;;;;;6.33;2.27;;;;;;;20.94;76.68;99895.06;6305581;28;20672;-69
2022/06/26 05:37:07;;;;;;;3.63;2.10;;;;;;;20.97;76.46;99885.94;6322258;28;20376;-69
2022/06/26 05:40:10;;;;;;;6.50;2.47;;;;;;;20.95;76.89;99899.38;6322147;28;20048;-70
2022/06/26 05:43:11;;;;;;;6.97;2.45;;;;;;;20.94;76.71;99905.69;6322106;28;20086;-69
2022/06/26 05:46:12;;;;;;;6.53;2.00;;;;;;;21.02;76.18;99903.00;6305041;28;20052;-69
2022/06/26 05:49:15;;;;;;;4.73;2.33;;;;;;;21.23;74.56;99901.69;6322135;28;20042;-69
2022/06/26 05:52:16;;;;;;;6.90;2.10;;;;;;;21.44;72.87;99898.56;6323148;28;20502;-69
2022/06/26 05:55:17;;;;;;;10.00;2.10;;;;;;;21.66;72.01;99903.19;6305184;28;20044;-69
2022/06/26 05:58:20;;;;;;;6.80;2.10;;;;;;;21.76;69.31;99905.63;6300164;28;20048;-69
2022/06/26 06:01:21;;;;;;;3.38;1.90;;;;;;;21.88;69.22;99904.28;6296649;28;20040;-70
2022/06/26 06:04:22;;;;;;;4.43;1.60;;;;;;;22.06;68.63;99919.19;6296311;28;20086;-70
2022/06/26 06:07:24;;;;;;;5.47;1.65;;;;;;;22.14;65.76;99925.28;6296990;28;20099;-70
2022/06/26 06:10:25;;;;;;;6.60;1.77;;;;;;;22.31;66.83;99919.94;6286337;28;20044;-70
2022/06/26 06:13:26;;;;;;;;;;;;;;;22.47;66.34;99927.00;6308351;28;20037;-70
2022/06/26 06:16:27;;;;;;;2.28;1.50;;;;;;;22.69;65.54;99923.56;6296307;28;19931;-70
2022/06/26 06:19:28;;;;;;;2.73;2.00;;;;;;;22.90;64.39;99932.75;6279536;28;20483;-69
2022/06/26 06:22:29;;;;;;;2.83;1.60;;;;;;;22.97;63.01;99930.19;6283456;28;20052;-71
2022/06/26 06:25:31;;;;;;;6.95;1.80;;;;;;;23.06;62.02;99939.78;6322445;28;20382;-70
2022/06/26 06:28:32;;;;;;;;;;;;;;;23.19;62.45;99940.03;6305060;28;20036;-70
2022/06/26 06:31:33;;;;;;;2.60;1.63;;;;;;;23.31;60.74;99943.13;6287423;28;19927;-70
2022/06/26 06:34:36;;;;;;;3.23;1.80;;;;;;;23.39;58.20;99948.38;6322228;28;20056;-70
2022/06/26 06:37:37;;;;;;;2.65;1.65;;;;;;;23.64;59.39;99956.13;6322001;28;20042;-70
2022/06/26 06:40:38;;;;;;;5.50;1.73;;;;;;;23.70;58.92;99952.72;6322092;28;20040;-70
2022/06/26 06:43:39;;;;;;;3.30;1.60;;;;;;;23.90;56.27;99956.56;6300464;28;20040;-70
2022/06/26 06:46:40;;;;;;;2.60;1.50;;;;;;;24.16;56.32;99957.13;6304168;28;20045;-70
2022/06/26 06:49:41;;;;;;;4.73;1.77;;;;;;;24.19;55.38;99949.56;6304934;28;20367;-70
2022/06/26 06:52:42;;;;;;;9.77;1.70;;;;;;;24.30;53.89;99951.78;6306595;28;20044;-70
2022/06/26 06:55:46;;;;;;;4.15;1.45;;;;;;;24.30;55.25;99943.78;6295672;28;20079;-70
2022/06/26 06:58:47;;;;;;;8.30;1.40;;;;;;;24.43;53.71;99944.97;6307502;28;20044;-70
2022/06/26 07:01:48;;;;;;;2.65;1.40;;;;;;;24.67;54.72;99947.34;6314616;28;20487;-69
2022/06/26 07:04:49;;;;;;;3.77;1.40;;;;;;;24.96;52.70;99953.59;6318100;28;20050;-69
2022/06/26 07:07:49;;;;;;;4.00;1.70;;;;;;;24.80;52.52;99960.00;6321266;28;20490;-70
2022/06/26 07:10:50;;;;;;;2.13;1.45;;;;;;;25.14;52.53;99959.31;6320099;28;20478;-70
2022/06/26 07:13:51;;;;;;;9.40;1.80;;;;;;;24.93;52.34;99952.13;6303532;28;20036;-69
2022/06/26 07:16:52;;;;;;;3.97;1.47;;;;;;;25.34;52.59;99956.03;6278301;28;20033;-69
2022/06/26 07:19:53;;;;;;;6.25;1.40;;;;;;;25.05;50.43;99960.44;6278443;28;20482;-69
2022/06/26 07:22:54;;;;;;;2.17;1.37;;;;;;;25.31;50.92;99965.25;6281178;28;20124;-70
2022/06/26 07:25:56;;;;;;;3.73;1.53;;;;;;;25.65;50.92;99969.00;6309074;28;20292;-69
2022/06/26 07:28:56;;;;;;;7.90;1.65;;;;;;;25.77;51.32;99968.50;6296052;28;20056;-69
2022/06/26 07:31:57;;;;;;;5.32;1.77;;;;;;;25.96;51.44;99973.16;6296449;28;20052;-71
2022/06/26 07:34:59;;;;;;;4.63;1.58;;;;;;;26.03;50.88;99974.03;6312821;28;20482;-70
2022/06/26 07:38:00;;;;;;;2.65;1.50;;;;;;;26.18;52.17;99968.56;6319651;28;20402;-70
2022/06/26 07:41:01;;;;;;;2.75;1.42;;;;;;;26.34;52.11;99970.91;6300598;28;20110;-70
2022/06/26 07:44:02;;;;;;;2.60;1.70;;;;;;;26.65;50.24;99969.63;6309632;28;20073;-70
2022/06/26 07:47:03;;;;;;;3.35;1.52;;;;;;;26.74;50.25;99971.09;6304352;28;20757;-70
2022/06/26 07:50:05;;;;;;;2.45;1.52;;;;;;;26.99;49.07;99981.25;6327636;28;20064;-70
2022/06/26 07:53:07;;;;;;;6.20;1.90;;;;;;;26.82;48.51;99971.94;6328097;28;20130;-70
2022/06/26 07:56:08;;;;;;;5.82;1.63;;;;;;;26.79;48.23;99973.19;6345886;28;20043;-71
2022/06/26 07:59:10;;;;;;;3.78;1.50;;;;;;;26.73;48.59;99979.34;6345826;28;20035;-72
2022/06/26 08:02:10;;;;;;;8.23;1.65;;;;;;;26.45;50.85;99971.38;6317266;28;20044;-72
2022/06/26 08:05:11;;;;;;;5.25;1.80;;;;;;;26.92;48.51;99967.84;6316544;28;20476;-70
2022/06/26 08:08:12;;;;;;;2.30;1.70;;;;;;;27.08;49.41;99972.00;6304770;28;20036;-70
2022/06/26 08:11:13;;;;;;;;;;;;;;;27.48;50.20;99965.88;6304568;28;20139;-69
2022/06/26 08:14:14;;;;;;;4.57;1.60;;;;;;;27.69;49.72;99970.19;6336354;28;20374;-70
2022/06/26 08:17:15;;;;;;;5.25;1.77;;;;;;;27.91;44.90;99974.31;6327483;28;20059;-69
2022/06/26 08:20:18;;;;;;;5.68;1.70;;;;;;;28.08;47.53;99974.69;6311280;28;20043;-69
2022/06/26 08:23:22;;;;;;;7.85;1.83;;;;;;;28.37;45.47;99971.72;6316865;28;20512;-70
2022/06/26 08:26:23;;;;;;;4.22;1.80;;;;;;;28.54;44.83;99972.94;6321099;28;20047;-70
2022/06/26 08:29:24;;;;;;;5.05;1.50;;;;;;;28.78;44.10;99975.91;6335075;28;20035;-70
2022/06/26 08:32:24;;;;;;;4.25;1.70;;;;;;;28.80;43.39;99985.38;6327780;28;20036;-71
2022/06/26 08:35:27;;;;;;;4.22;1.55;;;;;;;28.80;42.39;99979.19;6339080;28;20494;-69
2022/06/26 08:38:28;;;;;;;3.28;1.33;;;;;;;29.00;43.74;99990.66;6319850;28;20048;-70
2022/06/26 08:41:29;;;;;;;6.88;1.83;;;;;;;28.78;43.34;99974.03;6289466;28;20402;-70
2022/06/26 08:44:32;;;;;;;8.50;1.85;;;;;;;29.14;45.01;99983.38;6323136;28;20109;-70
2022/06/26 08:47:41;;;;;;;4.05;1.40;;;;;;;29.22;41.66;99983.09;6336119;28;20549;-70
2022/06/26 08:50:44;;;;;;;4.60;1.40;;;;;;;29.13;41.68;99982.53;6350074;28;20038;-70
2022/06/26 08:53:46;;;;;;;4.25;1.67;;;;;;;29.02;40.43;99977.00;6334623;28;20047;-70
2022/06/26 08:56:48;;;;;;;3.85;1.48;;;;;;;29.23;40.15;99983.91;6348346;28;20082;-70
2022/06/26 08:59:49;;;;;;;2.60;1.40;;;;;;;29.12;41.25;99980.88;6346868;28;20032;-70
2022/06/26 09:02:50;;;;;;;2.67;1.80;;;;;;;29.44;40.86;99980.84;6330141;28;20405;-69
2022/06/26 09:05:51;;;;;;;3.75;1.52;;;;;;;29.88;40.45;99978.25;6320276;28;20043;-70
2022/06/26 09:08:52;;;;;;;3.60;1.20;;;;;;;29.93;37.58;99976.50;6307045;28;20047;-69
2022/06/26 09:11:55;;;;;;;2.85;1.13;;;;;;;29.99;37.03;99982.06;6323370;28;20386;-70
2022/06/26 09:14:57;;;;;;;1.83;1.23;;;;;;;30.02;37.40;99985.13;6329020;28;20040;-70
2022/06/26 09:18:03;;;;;;;3.10;1.45;;;;;;;30.00;35.61;99991.75;6331268;28;20535;-69
2022/06/26 09:21:05;;;;;;;2.55;1.23;;;;;;;29.71;36.10;99981.50;6331036;28;20067;-70
2022/06/26 09:24:15;;;;;;;8.88;1.40;;;;;;;29.83;37.34;99981.56;6330909;28;20036;-69
2022/06/26 09:27:16;;;;;;;1.92;1.30;;;;;;;30.21;36.79;99964.41;6330921;28;20436;-69
2022/06/26 09:30:19;;;;;;;;;;;;;;;30.30;36.63;99976.53;6331679;28;20051;-70
2022/06/26 09:33:28;;;;;;;2.45;1.10;;;;;;;30.81;37.45;99976.34;6330621;28;20018;-70
2022/06/26 09:36:32;;;;;;;2.60;1.20;;;;;;;31.05;34.75;99974.53;6348884;28;20379;-70
2022/06/26 09:39:36;;;;;;;5.55;1.60;;;;;;;30.10;35.37;99965.16;6330597;28;20043;-70
2022/06/26 09:42:37;;;;;;;4.47;1.52;;;;;;;29.39;36.28;99971.81;6348734;28;20131;-70
2022/06/26 09:45:42;;;;;;;4.65;1.30;;;;;;;30.30;36.66;99970.34;6296509;28;20117;-70
2022/06/26 09:48:43;;;;;;;5.85;1.50;;;;;;;30.36;37.34;99971.31;6330557;28;20498;-70
2022/06/26 09:51:44;;;;;;;5.07;1.40;;;;;;;30.83;35.29;99975.03;6313583;28;20046;-70
2022/06/26 09:54:46;;;;;;;4.32;1.33;;;;;;;31.20;35.54;99974.13;6323350;28;20048;-70
2022/06/26 09:57:48;;;;;;;1.40;1.30;;;;;;;31.38;37.65;99965.13;6330114;28;20039;-70
2022/06/26 10:07:31;;;;;;;4.55;1.42;;;;;;;30.98;32.49;99952.28;6339809;28;20040;-70
2022/06/26 10:10:34;;;;;;;2.13;1.20;;;;;;;31.56;34.03;99956.16;6330788;28;20508;-70
2022/06/26 10:13:39;;;;;;;3.10;1.42;;;;;;;31.85;32.78;99954.38;6329471;28;20036;-70
2022/06/26 10:16:46;;;;;;;5.38;1.40;;;;;;;31.46;35.19;99962.09;6309512;28;20040;-70
2022/06/26 10:19:58;;;;;;;2.83;1.38;;;;;;;31.95;32.77;99961.88;6328864;28;20087;-70
2022/06/26 10:23:01;;;;;;;3.67;1.38;;;;;;;31.89;32.76;99948.25;6335429;28;20079;-70
2022/06/26 10:26:15;;;;;;;6.75;1.38;;;;;;;31.76;31.82;99947.72;6317790;28;20047;-70
2022/06/26 10:29:16;;;;;;;3.00;1.50;;;;;;;31.56;33.85;99954.25;6329383;28;20451;-70
2022/06/26 10:32:26;;;;;;;;;;;;;;;31.72;31.82;99955.44;6330334;28;20058;-71
2022/06/26 10:35:38;;;;;;;3.92;1.38;;;;;;;31.73;32.18;99948.97;6347528;28;19919;-71
2022/06/26 10:38:39;;;;;;;5.47;1.63;;;;;;;32.12;34.83;99942.06;6329387;28;20046;-70
2022/06/26 10:45:14;;;;;;;3.22;1.27;;;;;;;32.55;31.96;99939.94;6346949;28;19927;-71
2022/06/26 10:48:24;;;;;;;4.75;1.30;;;;;;;32.68;32.14;99931.56;6311898;28;20055;-71
2022/06/26 10:51:32;;;;;;;3.83;1.17;;;;;;;32.47;30.93;99935.72;6346272;28;20071;-70
2022/06/26 10:54:35;;;;;;;3.95;1.30;;;;;;;32.72;31.20;99929.19;6347002;28;20039;-70
2022/06/26 10:57:37;;;;;;;5.15;1.50;;;;;;;33.03;30.76;99932.41;6328700;28;20043;-70
2022/06/26 11:00:38;;;;;;;6.30;1.70;;;;;;;33.28;29.77;99930.16;6346651;28;20496;-70
2022/06/26 11:03:40;;;;;;;;;;;;;;;33.23;30.90;99931.94;6312290;28;20066;-70
2022/06/26 11:06:40;;;;;;;;;;;;;;;33.17;32.18;99928.34;6328914;28;19927;-70
2022/06/26 11:09:42;;;;;;;2.15;1.33;;;;;;;33.68;31.36;99923.72;6311800;28;20354;-71
2022/06/26 11:12:46;;;;;;;4.47;1.58;;;;;;;33.43;30.84;99923.34;6328512;28;20039;-70
2022/06/26 11:15:47;;;;;;;4.38;1.60;;;;;;;33.21;31.19;99924.09;6328509;28;20118;-70
2022/06/26 11:18:48;;;;;;;7.95;1.40;;;;;;;33.05;29.22;99919.47;6311420;28;20426;-70
2022/06/26 11:21:48;;;;;;;5.30;1.55;;;;;;;32.45;30.08;99918.09;6346426;28;20122;-70
2022/06/26 11:24:53;;;;;;;;;;;;;;;32.37;31.88;99919.34;6328648;28;20443;-70
2022/06/26 11:27:55;;;;;;;3.50;1.50;;;;;;;33.10;31.09;99917.69;6346194;28;19920;-70
2022/06/26 11:30:57;;;;;;;4.55;1.85;;;;;;;33.47;29.86;99909.06;6346241;28;20032;-70
2022/06/26 11:34:27;;;;;;;5.43;1.88;;;;;;;33.57;30.94;99907.59;6346204;28;20473;-70
2022/06/26 11:37:36;;;;;;;2.72;1.58;;;;;;;33.68;29.57;99909.41;6324562;28;20138;-70
2022/06/26 11:40:39;;;;;;;3.50;1.42;;;;;;;33.51;30.19;99901.28;6346003;28;20035;-70
2022/06/26 11:43:47;;;;;;;5.20;1.35;;;;;;;33.95;30.63;99900.53;6346074;28;20039;-71
2022/06/26 11:46:48;;;;;;;2.10;1.50;;;;;;;33.81;32.00;99900.94;6345920;28;20405;-71
2022/06/26 11:49:50;;;;;;;4.30;1.33;;;;;;;34.04;32.15;99897.16;6311152;28;20058;-70
2022/06/26 11:52:55;;;;;;;1.70;1.33;;;;;;;33.70;29.53;99893.72;6327708;28;20044;-70
2022/06/26 11:56:01;;;;;;;4.05;1.92;;;;;;;33.25;29.46;99886.56;6345807;28;20276;-71
2022/06/26 11:59:01;;;;;;;4.28;1.40;;;;;;;33.49;31.55;99890.72;6345886;28;20136;-71
2022/06/26 12:02:03;;;;;;;5.00;1.33;;;;;;;33.75;35.23;99890.28;6349212;28;20482;-70
2022/06/26 12:05:04;;;;;;;6.60;1.75;;;;;;;33.74;29.28;99886.75;6315885;28;20047;-70
2022/06/26 12:08:14;;;;;;;11.07;1.60;;;;;;;33.56;29.61;99885.13;6332573;28;20043;-70
2022/06/26 12:11:15;;;;;;;6.15;1.52;;;;;;;33.73;29.85;99890.53;6332953;28;20074;-71
2022/06/26 12:14:17;;;;;;;6.28;1.40;;;;;;;33.79;29.13;99892.25;6332752;28;20040;-71
2022/06/26 12:17:23;;;;;;;8.07;1.58;;;;;;;34.05;29.26;99882.53;6332578;28;20031;-70
2022/06/26 12:20:24;;;;;;;1.77;1.30;;;;;;;34.02;33.36;99877.63;6332547;28;20387;-71
2022/06/26 12:23:39;;;;;;;5.00;1.40;;;;;;;32.91;30.03;99875.75;6350566;28;20040;-71
2022/06/26 12:26:41;;;;;;;3.42;1.42;;;;;;;33.61;29.29;99884.44;6350359;28;20506;-71
2022/06/26 12:29:42;;;;;;;5.90;1.50;;;;;;;33.44;29.83;99884.41;6350586;28;20039;-71
2022/06/26 12:32:43;;;;;;;1.90;1.45;;;;;;;33.82;32.78;99875.50;6350294;28;20504;-70
2022/06/26 12:35:43;;;;;;;6.00;1.60;;;;;;;34.17;28.23;99871.59;6332152;28;20447;-70
2022/06/26 12:38:47;;;;;;;5.70;1.80;;;;;;;34.20;29.55;99883.81;6350257;28;20374;-71
2022/06/26 12:41:49;;;;;;;2.65;1.33;;;;;;;33.74;27.29;99875.13;6315008;28;20048;-70
2022/06/26 12:44:50;;;;;;;4.70;1.63;;;;;;;33.61;30.08;99870.91;6315191;28;20560;-71
2022/06/26 12:47:51;;;;;;;1.63;1.40;;;;;;;33.48;29.26;99869.31;6331823;28;20044;-70
2022/06/26 12:50:52;;;;;;;3.88;1.42;;;;;;;33.51;28.74;99869.66;6349927;28;20043;-70
2022/06/26 12:53:53;;;;;;;4.50;1.40;;;;;;;33.24;32.28;99864.13;6349852;28;20066;-70
2022/06/26 12:56:54;;;;;;;3.72;1.70;;;;;;;33.16;30.81;99856.44;6331690;28;20402;-71
2022/06/26 12:59:54;;;;;;;4.70;1.67;;;;;;;32.95;30.95;99854.44;6298277;28;20044;-70
2022/06/26 13:02:55;;;;;;;5.35;2.20;;;;;;;32.78;30.70;99855.28;6331393;28;20112;-71
2022/06/26 13:05:56;;;;;;;3.40;1.50;;;;;;;32.92;29.58;99850.34;6298006;28;20039;-70
2022/06/26 13:08:58;;;;;;;4.18;1.40;;;;;;;32.77;30.74;99847.41;6331523;28;20032;-70
2022/06/26 13:11:59;;;;;;;4.65;1.60;;;;;;;32.88;30.65;99851.91;6330748;28;20040;-71
2022/06/26 13:15:00;;;;;;;4.47;1.50;;;;;;;32.85;31.01;99842.41;6331115;28;20057;-70
2022/06/26 13:18:01;;;;;;;3.63;1.70;;;;;;;32.96;29.30;99838.00;6349328;28;20036;-70
2022/06/26 13:21:02;;;;;;;1.88;1.30;;;;;;;33.16;30.10;99850.22;6331080;28;20039;-70
2022/06/26 13:24:04;;;;;;;4.35;1.60;;;;;;;32.85;29.32;99845.13;6330982;28;20039;-70
2022/06/26 13:27:05;;;;;;;5.03;1.55;;;;;;;32.38;29.68;99844.56;6330671;28;20063;-70
2022/06/26 13:30:07;;;;;;;5.20;1.52;;;;;;;31.97;31.28;99841.88;6349162;28;20051;-71
2022/06/26 13:33:11;;;;;;;3.35;1.60;;;;;;;32.00;30.90;99841.44;6330657;28;20099;-71
2022/06/26 13:36:11;;;;;;;2.78;1.65;;;;;;;32.37;29.90;99832.94;6348814;28;20048;-70
2022/06/26 13:39:12;;;;;;;6.57;1.85;;;;;;;32.42;29.21;99843.81;6297300;28;20059;-70
2022/06/26 13:42:13;;;;;;;2.83;1.50;;;;;;;32.49;29.96;99840.97;6330671;28;20551;-70
2022/06/26 13:45:14;;;;;;;3.60;1.70;;;;;;;32.32;29.94;99835.53;6313648;28;20051;-70
2022/06/26 13:48:16;;;;;;;4.10;1.75;;;;;;;31.83;29.88;99835.09;6348540;28;20466;-70
2022/06/26 13:51:16;;;;;;;5.93;1.63;;;;;;;31.85;33.61;99841.06;6330331;28;20078;-70
2022/06/26 13:54:18;;;;;;;1.73;1.50;;;;;;;31.83;32.02;99840.50;6313343;28;20048;-71
2022/06/26 13:57:18;;;;;;;8.60;1.90;;;;;;;31.83;33.41;99837.81;6296753;28;20054;-70
2022/06/26 14:00:19;;;;;;;7.50;2.22;;;;;;;31.89;33.70;99839.53;6330135;28;20139;-71
2022/06/26 14:03:20;;;;;;;2.22;1.60;;;;;;;31.71;31.29;99832.44;6330070;28;20100;-70
2022/06/26 14:06:21;;;;;;;;;;;;;;;31.71;31.94;99835.97;6330502;28;20043;-70
2022/06/26 14:09:22;;;;;;;4.68;1.77;;;;;;;31.61;32.69;99835.75;6313273;28;19926;-70
2022/06/26 14:12:23;;;;;;;4.88;1.80;;;;;;;31.35;33.05;99826.25;6348022;28;20039;-70
2022/06/26 14:15:23;;;;;;;;;;;;;;;31.42;31.25;99829.66;6313277;28;20051;-70
2022/06/26 14:18:25;;;;;;;2.80;1.70;;;;;;;31.32;30.01;99838.34;6329731;28;20014;-70
2022/06/26 14:21:25;;;;;;;7.03;1.70;;;;;;;31.17;30.38;99840.66;6329759;28;20039;-70
2022/06/26 14:27:45;;;;;;;3.65;1.65;;;;;;;31.05;32.11;99842.53;6347655;28;19946;-70
2022/06/26 14:30:47;;;;;;;2.45;1.67;;;;;;;30.95;34.03;99844.97;6329511;28;20074;-70
2022/06/26 14:33:49;;;;;;;2.47;1.63;;;;;;;30.87;31.88;99844.28;6347429;28;20036;-70
2022/06/26 14:36:50;;;;;;;8.82;1.92;;;;;;;30.85;33.45;99846.34;6347493;28;20508;-70